createdAt,value
2019-02-11T00:00:29.727Z,32.30
2019-02-11T00:02:58.286Z,28.90
2019-02-11T00:05:26.510Z,26.93
2019-02-11T00:07:54.691Z,31.90
2019-02-11T00:10:23.219Z,29.77
2019-02-11T00:12:51.405Z,24.90
2019-02-11T00:15:19.593Z,35.85
2019-02-11T00:17:47.796Z,18.23
2019-02-11T00:20:16.046Z,18.15
2019-02-11T00:22:44.242Z,31.77
2019-02-11T00:25:12.496Z,25.23
2019-02-11T00:27:40.957Z,25.52
2019-02-11T00:30:10.691Z,22.27
2019-02-11T00:32:43.299Z,22.95
2019-02-11T00:35:11.502Z,28.32
2019-02-11T00:37:47.661Z,25.12
2019-02-11T00:40:16.155Z,21.00
2019-02-11T00:42:44.352Z,15.10
2019-02-11T00:45:12.534Z,23.25
2019-02-11T00:47:40.742Z,17.27
2019-02-11T00:50:10.910Z,15.58
2019-02-11T00:52:39.380Z,22.80
2019-02-11T00:55:07.565Z,14.15
2019-02-11T00:57:35.761Z,14.60
2019-02-11T01:00:05.323Z,10.10
2019-02-11T01:02:33.526Z,14.65
2019-02-11T01:05:01.714Z,19.12
2019-02-11T01:07:29.911Z,14.07
2019-02-11T01:09:58.101Z,14.00
2019-02-11T01:12:26.619Z,15.03
2019-02-11T01:14:54.808Z,12.35
2019-02-11T01:17:23.008Z,21.80
2019-02-11T01:19:51.203Z,17.67
2019-02-11T01:22:19.724Z,16.65
2019-02-11T01:24:48.204Z,17.87
2019-02-11T01:27:16.705Z,15.53
2019-02-11T01:29:45.167Z,12.65
2019-02-11T01:32:13.377Z,14.30
2019-02-11T01:34:41.558Z,15.20
2019-02-11T01:37:10.119Z,15.75
2019-02-11T01:39:38.323Z,14.25
2019-02-11T01:42:06.517Z,23.18
2019-02-11T01:44:34.704Z,14.85
2019-02-11T01:47:02.900Z,14.73
2019-02-11T01:49:31.381Z,19.95
2019-02-11T01:51:59.576Z,14.38
2019-02-11T01:54:27.766Z,15.23
2019-02-11T01:56:55.958Z,7.90
2019-02-11T01:59:24.504Z,14.50
2019-02-11T02:01:52.707Z,15.70
2019-02-11T02:04:20.926Z,13.45
2019-02-11T02:06:49.418Z,16.62
2019-02-11T02:09:17.604Z,16.67
2019-02-11T02:11:45.807Z,18.75
2019-02-11T02:14:14.001Z,14.80
2019-02-11T02:16:42.191Z,22.70
2019-02-11T02:19:10.381Z,25.37
2019-02-11T02:21:38.583Z,24.32
2019-02-11T02:24:06.774Z,17.37
2019-02-11T02:26:35.320Z,22.40
2019-02-11T02:29:03.510Z,14.85
2019-02-11T02:31:31.718Z,20.85
2019-02-11T02:33:59.916Z,23.15
2019-02-11T02:36:28.148Z,23.73
2019-02-11T02:38:56.601Z,25.60
2019-02-11T02:41:24.904Z,25.20
2019-02-11T02:43:55.461Z,30.62
2019-02-11T02:46:23.017Z,28.27
2019-02-11T02:48:51.205Z,28.45
2019-02-11T02:51:19.403Z,25.52
2019-02-11T02:53:47.584Z,22.27
2019-02-11T02:56:15.792Z,27.70
2019-02-11T02:58:43.987Z,24.10
2019-02-11T03:01:12.525Z,25.50
2019-02-11T03:03:40.716Z,27.10
2019-02-11T03:06:09.179Z,22.90
2019-02-11T03:08:37.363Z,19.23
2019-02-11T03:11:05.566Z,22.73
2019-02-11T03:13:33.760Z,22.50
2019-02-11T03:16:01.956Z,24.10
2019-02-11T03:18:30.460Z,23.70
2019-02-11T03:20:58.666Z,24.45
2019-02-11T03:23:26.858Z,28.62
2019-02-11T03:25:55.057Z,21.70
2019-02-11T03:28:23.578Z,22.45
2019-02-11T03:30:52.261Z,16.20
2019-02-11T03:33:20.458Z,21.75
2019-02-11T03:35:48.646Z,13.38
2019-02-11T03:38:16.854Z,27.32
2019-02-11T03:40:45.044Z,18.92
2019-02-11T03:43:13.238Z,21.80
2019-02-11T03:45:41.432Z,27.27
2019-02-11T03:48:09.646Z,23.35
2019-02-11T03:50:37.840Z,20.60
2019-02-11T03:53:06.280Z,24.72
2019-02-11T03:55:34.815Z,18.02
2019-02-11T03:58:03.302Z,20.08
2019-02-11T04:00:31.781Z,15.03
2019-02-11T04:02:59.973Z,22.37
2019-02-11T04:05:28.169Z,22.25
2019-02-11T04:07:56.353Z,13.58
2019-02-11T04:10:24.553Z,17.10
2019-02-11T04:12:52.743Z,20.48
2019-02-11T04:15:21.234Z,14.70
2019-02-11T04:17:49.420Z,20.45
2019-02-11T04:20:17.626Z,18.10
2019-02-11T04:22:45.808Z,16.40
2019-02-11T04:25:14.025Z,25.40
2019-02-11T04:27:42.220Z,24.20
2019-02-11T04:30:10.685Z,18.55
2019-02-11T04:32:38.891Z,18.90
2019-02-11T04:35:07.343Z,25.97
2019-02-11T04:37:35.564Z,29.42
2019-02-11T04:40:05.679Z,20.17
2019-02-11T04:42:33.892Z,21.20
2019-02-11T04:45:02.387Z,23.95
2019-02-11T04:47:30.570Z,20.10
2019-02-11T04:49:58.779Z,21.55
2019-02-11T04:52:26.958Z,22.82
2019-02-11T04:54:55.526Z,32.28
2019-02-11T04:57:23.716Z,28.55
2019-02-11T04:59:51.963Z,24.50
2019-02-11T05:02:20.420Z,24.90
2019-02-11T05:04:49.525Z,22.20
2019-02-11T05:07:17.734Z,19.80
2019-02-11T05:09:45.958Z,22.20
2019-02-11T05:12:14.156Z,23.22
2019-02-11T05:14:44.256Z,28.90
2019-02-11T05:17:12.282Z,24.12
2019-02-11T05:19:40.470Z,31.95
2019-02-11T05:22:08.999Z,18.92
2019-02-11T05:24:37.200Z,18.57
2019-02-11T05:27:05.658Z,23.92
2019-02-11T05:29:33.863Z,27.22
2019-02-11T05:32:02.412Z,28.42
2019-02-11T05:34:30.622Z,35.43
2019-02-11T05:36:58.807Z,30.05
2019-02-11T05:39:27.016Z,36.73
2019-02-11T05:41:55.208Z,29.35
2019-02-11T05:44:23.393Z,27.15
2019-02-11T05:46:51.599Z,27.82
2019-02-11T05:49:19.794Z,27.10
2019-02-11T05:51:48.315Z,25.00
2019-02-11T05:54:16.514Z,24.45
2019-02-11T05:56:44.718Z,29.12
2019-02-11T05:59:12.911Z,23.32
2019-02-11T06:01:41.528Z,30.82
2019-02-11T06:04:10.313Z,27.02
2019-02-11T06:06:38.518Z,34.55
2019-02-11T06:09:06.729Z,29.72
2019-02-11T06:11:34.898Z,31.00
2019-02-11T06:14:03.096Z,29.05
2019-02-11T06:16:31.618Z,25.35
2019-02-11T06:18:59.828Z,28.30
2019-02-11T06:21:28.028Z,24.43
2019-02-11T06:23:56.234Z,36.77
2019-02-11T06:26:24.700Z,32.53
2019-02-11T06:28:52.905Z,29.32
2019-02-11T06:31:21.095Z,37.67
2019-02-11T06:33:49.299Z,30.60
2019-02-11T06:36:17.495Z,32.53
2019-02-11T06:38:45.979Z,40.63
2019-02-11T06:41:14.171Z,25.52
2019-02-11T06:43:42.373Z,40.85
2019-02-11T06:46:10.592Z,31.05
2019-02-11T06:48:39.084Z,33.10
2019-02-11T06:51:07.276Z,38.88
2019-02-11T06:53:35.736Z,37.88
2019-02-11T06:56:03.940Z,46.68
2019-02-11T06:58:32.391Z,39.38
2019-02-11T07:01:00.872Z,28.47
2019-02-11T07:03:29.075Z,33.08
2019-02-11T07:05:57.279Z,39.60
2019-02-11T07:08:25.809Z,29.72
2019-02-11T07:10:55.775Z,30.95
2019-02-11T07:13:23.924Z,33.78
2019-02-11T07:15:52.375Z,27.90
2019-02-11T07:18:20.580Z,33.80
2019-02-11T07:20:48.772Z,29.35
2019-02-11T07:23:17.313Z,28.40
2019-02-11T07:25:45.519Z,34.00
2019-02-11T07:28:13.706Z,33.13
2019-02-11T07:30:41.906Z,31.93
2019-02-11T07:33:10.105Z,40.00
2019-02-11T07:35:38.302Z,29.87
2019-02-11T07:38:06.490Z,31.52
2019-02-11T07:40:34.689Z,32.08
2019-02-11T07:43:07.445Z,35.33
2019-02-11T07:45:39.699Z,32.80
2019-02-11T07:48:07.897Z,36.98
2019-02-11T07:50:36.099Z,37.90
2019-02-11T07:53:04.308Z,29.55
2019-02-11T07:55:32.513Z,32.58
2019-02-11T07:58:00.702Z,21.97
2019-02-11T08:00:28.925Z,27.85
2019-02-11T08:02:57.112Z,28.95
2019-02-11T08:05:27.664Z,23.62
2019-02-11T08:07:55.859Z,35.10
2019-02-11T08:10:24.067Z,33.35
2019-02-11T08:12:52.327Z,25.55
2019-02-11T08:15:20.740Z,35.88
2019-02-11T08:17:48.936Z,35.58
2019-02-11T08:20:17.141Z,32.45
2019-02-11T08:22:45.343Z,33.08
2019-02-11T08:25:13.848Z,24.70
2019-02-11T08:27:42.037Z,28.10
2019-02-11T08:30:11.184Z,31.77
2019-02-11T08:32:39.378Z,33.90
2019-02-11T08:35:08.117Z,36.15
2019-02-11T08:37:36.313Z,28.92
2019-02-11T08:40:07.079Z,41.48
2019-02-11T08:42:35.290Z,35.40
2019-02-11T08:45:05.175Z,31.55
2019-02-11T08:47:33.404Z,34.33
2019-02-11T08:50:01.936Z,35.35
2019-02-11T08:52:31.126Z,37.98
2019-02-11T08:54:59.324Z,36.30
2019-02-11T08:57:27.534Z,31.95
2019-02-11T08:59:55.730Z,35.95
2019-02-11T09:02:23.948Z,35.65
2019-02-11T09:04:52.137Z,36.80
2019-02-11T09:07:20.341Z,36.77
2019-02-11T09:09:48.966Z,30.52
2019-02-11T09:12:17.170Z,39.27
2019-02-11T09:14:45.364Z,40.05
2019-02-11T09:17:13.559Z,34.27
2019-02-11T09:19:41.760Z,33.85
2019-02-11T09:22:10.250Z,32.85
2019-02-11T09:24:38.440Z,30.12
2019-02-11T09:27:06.651Z,31.42
2019-02-11T09:29:34.871Z,34.15
2019-02-11T09:32:03.077Z,35.13
2019-02-11T09:34:31.277Z,36.55
2019-02-11T09:36:59.481Z,30.55
2019-02-11T09:39:27.670Z,38.50
2019-02-11T09:41:56.588Z,29.55
2019-02-11T09:44:29.632Z,34.08
2019-02-11T09:46:54.959Z,34.60
2019-02-11T09:49:23.152Z,38.55
2019-02-11T09:51:52.133Z,33.98
2019-02-11T09:54:20.607Z,32.10
2019-02-11T09:56:48.812Z,27.40
2019-02-11T09:59:17.000Z,40.12
2019-02-11T10:01:45.202Z,37.83
2019-02-11T10:04:13.719Z,38.10
2019-02-11T10:06:41.961Z,38.50
2019-02-11T10:09:10.154Z,32.58
2019-02-11T10:11:38.359Z,33.55
2019-02-11T10:14:06.551Z,33.35
2019-02-11T10:16:34.759Z,32.65
2019-02-11T10:19:02.954Z,36.30
2019-02-11T10:21:31.168Z,34.80
2019-02-11T10:24:01.317Z,34.27
2019-02-11T10:26:29.846Z,34.70
2019-02-11T10:28:58.055Z,33.02
2019-02-11T10:31:26.602Z,33.98
2019-02-11T10:33:54.805Z,40.03
2019-02-11T10:36:23.359Z,29.37
2019-02-11T10:38:51.556Z,39.20
2019-02-11T10:41:19.751Z,31.23
2019-02-11T10:43:47.978Z,30.88
2019-02-11T10:46:21.002Z,23.77
2019-02-11T10:48:46.626Z,32.83
2019-02-11T10:51:14.825Z,30.50
2019-02-11T10:53:43.034Z,23.92
2019-02-11T10:56:11.515Z,26.60
2019-02-11T10:58:39.989Z,23.75
2019-02-11T11:01:08.578Z,28.67
2019-02-11T11:03:36.773Z,23.10
2019-02-11T11:06:05.001Z,19.35
2019-02-11T11:08:33.201Z,22.25
2019-02-11T11:11:01.399Z,28.98
2019-02-11T11:13:29.876Z,29.18
2019-02-11T11:15:58.193Z,26.75
2019-02-11T11:18:26.381Z,23.67
2019-02-11T11:20:54.653Z,21.77
2019-02-11T11:23:23.164Z,19.57
2019-02-11T11:25:51.413Z,14.35
2019-02-11T11:28:19.581Z,14.35
2019-02-11T11:30:47.783Z,20.35
2019-02-11T11:33:15.980Z,16.17
2019-02-11T11:35:44.191Z,14.53
2019-02-11T11:38:12.421Z,12.85
2019-02-11T11:40:40.625Z,17.65
2019-02-11T11:43:08.814Z,16.00
2019-02-11T11:45:37.348Z,15.93
2019-02-11T11:48:05.553Z,16.55
2019-02-11T11:50:33.758Z,14.83
2019-02-11T11:53:01.954Z,20.35
2019-02-11T11:55:30.171Z,15.88
2019-02-11T11:57:58.360Z,16.32
2019-02-11T12:00:28.819Z,12.68
2019-02-11T12:03:02.769Z,23.50
2019-02-11T12:05:26.987Z,21.05
2019-02-11T12:07:55.156Z,15.95
2019-02-11T12:10:23.366Z,21.82
2019-02-11T12:12:51.573Z,21.10
2019-02-11T12:15:21.826Z,26.40
2019-02-11T12:18:01.446Z,24.70
2019-02-11T12:20:34.289Z,31.55
2019-02-11T12:23:01.877Z,27.52
2019-02-11T12:25:30.086Z,20.45
2019-02-11T12:27:58.377Z,19.17
2019-02-11T12:30:26.972Z,21.00
2019-02-11T12:32:56.292Z,20.08
2019-02-11T12:35:25.194Z,16.87
2019-02-11T12:37:53.478Z,19.92
2019-02-11T12:40:21.773Z,16.95
2019-02-11T12:42:52.625Z,20.10
2019-02-11T12:45:22.135Z,14.60
2019-02-11T12:47:50.343Z,22.82
2019-02-11T12:50:19.070Z,17.73
2019-02-11T12:52:47.286Z,21.27
2019-02-11T12:55:16.545Z,17.12
2019-02-11T12:57:59.838Z,21.73
2019-02-11T13:00:24.543Z,23.27
2019-02-11T13:02:52.745Z,18.27
2019-02-11T13:05:23.494Z,18.02
2019-02-11T13:07:50.924Z,20.92
2019-02-11T13:10:22.094Z,12.40
2019-02-11T13:12:51.214Z,19.07
2019-02-11T13:15:52.770Z,13.88
2019-02-11T13:17:50.189Z,17.25
2019-02-11T13:20:18.780Z,15.30
2019-02-11T13:22:47.310Z,10.88
2019-02-11T13:25:18.920Z,10.18
2019-02-11T13:27:47.339Z,13.30
2019-02-11T13:30:20.299Z,10.98
2019-02-11T13:32:48.474Z,17.05
2019-02-11T13:35:16.684Z,13.18
2019-02-11T13:37:45.021Z,9.43
2019-02-11T13:40:13.390Z,11.53
2019-02-11T13:42:41.713Z,13.85
2019-02-11T13:45:15.565Z,12.28
2019-02-11T13:47:53.164Z,12.13
2019-02-11T13:50:15.900Z,9.73
2019-02-11T13:52:44.071Z,16.85
2019-02-11T13:55:12.550Z,7.92
2019-02-11T13:57:40.817Z,12.78
2019-02-11T14:00:15.644Z,9.40
2019-02-11T14:02:48.793Z,6.97
2019-02-11T14:05:16.985Z,16.52
2019-02-11T14:07:45.197Z,11.68
2019-02-11T14:10:13.398Z,11.38
2019-02-11T14:12:41.583Z,11.20
2019-02-11T14:15:09.789Z,13.13
2019-02-11T14:17:37.985Z,12.58
2019-02-11T14:20:09.446Z,11.45
2019-02-11T14:22:37.956Z,12.68
2019-02-11T14:25:06.151Z,11.83
2019-02-11T14:27:34.342Z,11.93
2019-02-11T14:30:02.600Z,14.10
2019-02-11T14:32:31.397Z,14.38
2019-02-11T14:35:00.011Z,14.18
2019-02-11T14:37:28.257Z,15.38
2019-02-11T14:39:56.494Z,17.05
2019-02-11T14:42:24.971Z,13.90
2019-02-11T14:44:53.151Z,10.40
2019-02-11T14:47:21.353Z,12.03
2019-02-11T14:49:49.797Z,10.20
2019-02-11T14:52:18.004Z,11.68
2019-02-11T14:54:47.814Z,20.17
2019-02-11T14:57:16.185Z,24.57
2019-02-11T14:59:44.736Z,20.48
2019-02-11T15:02:12.984Z,19.07
2019-02-11T15:04:41.496Z,13.98
2019-02-11T15:07:09.978Z,19.25
2019-02-11T15:09:38.185Z,22.50
2019-02-11T15:12:06.380Z,18.70
2019-02-11T15:14:34.580Z,26.30
2019-02-11T15:17:03.241Z,20.70
2019-02-11T15:19:31.453Z,21.12
2019-02-11T15:22:00.044Z,23.12
2019-02-11T15:24:28.273Z,17.98
2019-02-11T15:26:56.807Z,23.73
2019-02-11T15:29:25.280Z,20.88
2019-02-11T15:31:53.777Z,21.10
2019-02-11T15:34:21.960Z,21.15
2019-02-11T15:36:50.643Z,19.82
2019-02-11T15:39:18.842Z,19.23
2019-02-11T15:41:46.985Z,16.65
2019-02-11T15:44:15.216Z,22.20
2019-02-11T15:46:43.738Z,19.82
2019-02-11T15:49:11.946Z,26.80
2019-02-11T15:51:40.145Z,25.90
2019-02-11T15:54:08.350Z,20.70
2019-02-11T15:56:36.552Z,24.32
2019-02-11T15:59:05.008Z,26.97
2019-02-11T16:01:33.217Z,20.55
2019-02-11T16:04:01.437Z,25.23
2019-02-11T16:06:37.648Z,23.62
2019-02-11T16:09:04.551Z,22.32
2019-02-11T16:11:29.904Z,22.45
2019-02-11T16:13:58.374Z,25.92
2019-02-11T16:16:26.586Z,23.52
2019-02-11T16:18:54.787Z,20.27
2019-02-11T16:21:22.977Z,25.92
2019-02-11T16:23:51.567Z,21.37
2019-02-11T16:26:20.048Z,21.52
2019-02-11T16:28:48.477Z,25.77
2019-02-11T16:31:16.659Z,27.52
2019-02-11T16:33:44.879Z,29.92
2019-02-11T16:36:13.072Z,29.37
2019-02-11T16:38:42.366Z,17.60
2019-02-11T16:41:10.575Z,19.50
2019-02-11T16:43:43.645Z,23.05
2019-02-11T16:46:13.672Z,22.22
2019-02-11T16:48:41.934Z,22.65
2019-02-11T16:51:10.217Z,19.55
2019-02-11T16:53:38.387Z,22.17
2019-02-11T16:56:07.040Z,23.02
2019-02-11T16:58:35.191Z,21.45
2019-02-11T17:01:03.395Z,22.42
2019-02-11T17:03:31.586Z,25.75
2019-02-11T17:05:59.790Z,18.65
2019-02-11T17:08:28.335Z,26.37
2019-02-11T17:10:56.544Z,19.87
2019-02-11T17:13:24.757Z,17.75
2019-02-11T17:15:52.950Z,19.10
2019-02-11T17:18:21.139Z,20.02
2019-02-11T17:20:49.355Z,19.45
2019-02-11T17:23:17.541Z,15.65
2019-02-11T17:25:45.741Z,18.55
2019-02-11T17:28:14.236Z,29.30
2019-02-11T17:30:43.783Z,20.68
2019-02-11T17:33:12.317Z,18.23
2019-02-11T17:35:40.590Z,23.07
2019-02-11T17:38:09.073Z,15.48
2019-02-11T17:40:37.306Z,13.53
2019-02-11T17:43:05.504Z,20.45
2019-02-11T17:45:33.700Z,13.58
2019-02-11T17:48:01.931Z,19.20
2019-02-11T17:50:30.450Z,17.50
2019-02-11T17:53:01.929Z,24.98
2019-02-11T17:55:30.164Z,31.25
2019-02-11T17:57:58.665Z,22.40
2019-02-11T18:00:41.273Z,24.98
2019-02-11T18:03:09.471Z,20.10
2019-02-11T18:05:37.928Z,14.73
2019-02-11T18:08:06.129Z,21.60
2019-02-11T18:10:34.360Z,18.48
2019-02-11T18:13:02.905Z,21.52
2019-02-11T18:15:31.096Z,28.35
2019-02-11T18:17:59.290Z,28.65
2019-02-11T18:20:27.501Z,22.55
2019-02-11T18:22:55.706Z,28.32
2019-02-11T18:25:24.254Z,27.60
2019-02-11T18:27:52.439Z,30.17
2019-02-11T18:30:20.649Z,29.75
2019-02-11T18:32:49.175Z,27.15
2019-02-11T18:35:19.319Z,26.02
2019-02-11T18:37:47.804Z,21.48
2019-02-11T18:40:16.167Z,21.85
2019-02-11T18:42:44.360Z,30.20
2019-02-11T18:45:16.863Z,23.18
2019-02-11T18:47:45.066Z,28.38
2019-02-11T18:50:14.758Z,23.40
2019-02-11T18:52:42.953Z,17.30
2019-02-11T18:55:13.392Z,21.80
2019-02-11T18:57:41.657Z,23.55
2019-02-11T19:00:16.853Z,27.22
2019-02-11T19:02:45.390Z,23.10
2019-02-11T19:05:13.970Z,26.97
2019-02-11T19:07:42.242Z,25.90
2019-02-11T19:10:12.580Z,27.77
2019-02-11T19:12:40.773Z,26.42
2019-02-11T19:15:11.881Z,20.82
2019-02-11T19:17:40.073Z,22.03
2019-02-11T19:20:10.620Z,24.25
2019-02-11T19:22:38.837Z,18.70
2019-02-11T19:25:08.872Z,16.42
2019-02-11T19:27:37.313Z,21.73
2019-02-11T19:30:12.032Z,23.38
2019-02-11T19:32:41.629Z,22.13
2019-02-11T19:35:09.845Z,21.15
2019-02-11T19:37:38.061Z,19.48
2019-02-11T19:40:09.735Z,11.25
2019-02-11T19:42:37.925Z,25.17
2019-02-11T19:45:09.548Z,14.50
2019-02-11T19:47:37.782Z,21.65
2019-02-11T19:50:09.290Z,19.77
2019-02-11T19:52:37.483Z,21.48
2019-02-11T19:55:08.035Z,16.55
2019-02-11T19:57:39.696Z,16.02
2019-02-11T20:00:21.654Z,29.80
2019-02-11T20:02:50.286Z,21.37
2019-02-11T20:05:18.865Z,20.25
2019-02-11T20:07:47.454Z,20.92
2019-02-11T20:10:17.872Z,21.40
2019-02-11T20:12:46.340Z,17.27
2019-02-11T20:15:18.595Z,25.77
2019-02-11T20:17:46.949Z,23.62
2019-02-11T20:20:19.876Z,26.73
2019-02-11T20:22:48.195Z,21.37
2019-02-11T20:25:18.163Z,33.38
2019-02-11T20:27:51.809Z,26.42
2019-02-11T20:30:27.779Z,29.82
2019-02-11T20:33:04.518Z,20.37
2019-02-11T20:35:35.352Z,26.93
2019-02-11T20:38:08.016Z,24.50
2019-02-11T20:40:36.267Z,27.75
2019-02-11T20:43:04.551Z,19.35
2019-02-11T20:45:33.222Z,21.68
2019-02-11T20:48:01.428Z,20.15
2019-02-11T20:50:29.659Z,20.85
2019-02-11T20:52:57.878Z,28.73
2019-02-11T20:55:26.081Z,24.32
2019-02-11T20:57:57.276Z,20.02
2019-02-11T21:00:26.174Z,23.30
2019-02-11T21:02:54.335Z,19.05
2019-02-11T21:05:23.324Z,22.62
2019-02-11T21:07:53.144Z,21.42
2019-02-11T21:10:23.230Z,19.50
2019-02-11T21:12:51.486Z,12.88
2019-02-11T21:15:20.011Z,14.25
2019-02-11T21:17:48.498Z,20.02
2019-02-11T21:20:26.101Z,19.40
2019-02-11T21:22:54.340Z,21.33
2019-02-11T21:25:22.541Z,19.32
2019-02-11T21:27:51.027Z,19.07
2019-02-11T21:30:19.227Z,14.63
2019-02-11T21:32:47.423Z,24.87
2019-02-11T21:35:15.627Z,21.73
2019-02-11T21:37:43.815Z,16.32
2019-02-11T21:40:12.038Z,22.77
2019-02-11T21:42:40.486Z,21.42
2019-02-11T21:45:10.954Z,26.30
2019-02-11T21:47:39.157Z,21.35
2019-02-11T21:50:26.489Z,23.07
2019-02-11T21:52:50.588Z,22.62
2019-02-11T21:55:20.732Z,23.30
2019-02-11T21:57:48.916Z,18.50
2019-02-11T22:00:19.416Z,26.02
2019-02-11T22:02:47.612Z,16.75
2019-02-11T22:05:15.826Z,18.73
2019-02-11T22:07:44.558Z,15.10
2019-02-11T22:10:14.661Z,13.85
2019-02-11T22:12:42.865Z,19.50
2019-02-11T22:15:12.603Z,20.10
2019-02-11T22:17:41.140Z,18.05
2019-02-11T22:20:12.260Z,17.10
2019-02-11T22:22:40.454Z,17.13
2019-02-11T22:25:10.280Z,14.98
2019-02-11T22:27:38.490Z,19.48
2019-02-11T22:30:15.546Z,17.85
2019-02-11T22:32:43.838Z,17.90
2019-02-11T22:35:12.030Z,14.20
2019-02-11T22:37:40.351Z,11.45
2019-02-11T22:40:10.970Z,18.90
2019-02-11T22:42:39.446Z,16.50
2019-02-11T22:45:10.840Z,19.02
2019-02-11T22:47:39.623Z,21.85
2019-02-11T22:50:12.490Z,17.70
2019-02-11T22:52:41.057Z,18.02
2019-02-11T22:55:11.314Z,21.30
2019-02-11T22:57:39.864Z,21.68
2019-02-11T23:00:26.778Z,19.73
2019-02-11T23:02:54.969Z,17.92
2019-02-11T23:05:23.194Z,14.55
2019-02-11T23:07:51.381Z,16.95
2019-02-11T23:10:19.570Z,17.55
2019-02-11T23:12:48.054Z,12.55
2019-02-11T23:15:16.250Z,15.55
2019-02-11T23:17:44.716Z,13.53
2019-02-11T23:20:13.302Z,13.20
2019-02-11T23:22:41.488Z,15.38
2019-02-11T23:25:09.704Z,11.08
2019-02-11T23:27:37.891Z,7.60
2019-02-11T23:30:13.289Z,18.20
2019-02-11T23:32:38.003Z,12.82
2019-02-11T23:35:06.742Z,19.20
2019-02-11T23:37:34.957Z,20.45
2019-02-11T23:40:03.628Z,20.43
2019-02-11T23:42:32.392Z,8.60
2019-02-11T23:45:00.875Z,15.98
2019-02-11T23:47:29.357Z,20.50
2019-02-11T23:49:57.579Z,14.25
2019-02-11T23:52:26.119Z,22.67
2019-02-11T23:54:54.310Z,21.35
2019-02-11T23:57:22.513Z,15.70
2019-02-11T23:59:50.710Z,16.97
